createdAt,value
2022-11-27T00:03:28.654Z,1024.9
2022-11-27T00:08:34.723Z,1024.9
2022-11-27T00:13:40.826Z,1024.8
2022-11-27T00:18:46.987Z,1024.8
2022-11-27T00:23:53.231Z,1024.8
2022-11-27T00:28:59.283Z,1024.9
2022-11-27T00:34:05.483Z,1024.9
2022-11-27T00:39:11.653Z,1024.9
2022-11-27T00:44:17.831Z,1024.9
2022-11-27T00:49:23.905Z,1024.8
2022-11-27T00:54:29.072Z,1024.8
2022-11-27T00:59:35.158Z,1024.8
2022-11-27T01:04:41.236Z,1024.7
2022-11-27T01:09:47.431Z,1024.7
2022-11-27T01:14:53.434Z,1024.6
2022-11-27T01:19:59.502Z,1024.6
2022-11-27T01:25:05.625Z,1024.6
2022-11-27T01:30:11.694Z,1024.6
2022-11-27T01:35:17.781Z,1024.5
2022-11-27T01:40:23.982Z,1024.4
2022-11-27T01:45:30.006Z,1024.3
2022-11-27T01:50:36.051Z,1024.3
2022-11-27T01:55:42.148Z,1024.2
2022-11-27T02:00:48.308Z,1024.1
2022-11-27T02:05:54.329Z,1024.1
2022-11-27T02:11:00.428Z,1024
2022-11-27T02:16:06.567Z,1024
2022-11-27T02:21:12.693Z,1024.1
2022-11-27T02:26:18.707Z,1024.1
2022-11-27T02:31:24.838Z,1024.1
2022-11-27T02:36:30.879Z,1024.2
2022-11-27T02:41:37.029Z,1024.2
2022-11-27T02:46:43.066Z,1024.1
2022-11-27T02:51:49.162Z,1024.2
2022-11-27T02:56:55.278Z,1024.2
2022-11-27T03:02:01.475Z,1024.1
2022-11-27T03:07:06.584Z,1024.1
2022-11-27T03:12:12.758Z,1024
2022-11-27T03:17:18.894Z,1023.9
2022-11-27T03:22:25.049Z,1023.9
2022-11-27T03:27:31.195Z,1023.9
2022-11-27T03:32:37.368Z,1023.8
2022-11-27T03:37:43.509Z,1023.9
2022-11-27T03:42:49.717Z,1023.9
2022-11-27T03:47:55.815Z,1023.9
2022-11-27T03:53:01.994Z,1024
2022-11-27T03:58:08.174Z,1023.9
2022-11-27T04:03:14.280Z,1023.9
2022-11-27T04:08:19.474Z,1023.9
2022-11-27T04:13:25.564Z,1023.8
2022-11-27T04:18:31.616Z,1023.8
2022-11-27T04:23:37.709Z,1023.9
2022-11-27T04:28:43.804Z,1024
2022-11-27T04:33:49.896Z,1023.9
2022-11-27T04:38:54.994Z,1023.9
2022-11-27T04:44:01.111Z,1023.9
2022-11-27T04:49:07.236Z,1023.9
2022-11-27T04:54:13.275Z,1023.9
2022-11-27T04:59:19.354Z,1023.9
2022-11-27T05:09:31.530Z,1023.9
2022-11-27T05:14:37.623Z,1023.8
2022-11-27T05:19:43.719Z,1023.9
2022-11-27T05:24:49.851Z,1024
2022-11-27T05:29:55.894Z,1023.9
2022-11-27T05:35:01.999Z,1023.9
2022-11-27T05:40:08.147Z,1023.9
2022-11-27T05:45:14.224Z,1024
2022-11-27T05:50:20.326Z,1023.9
2022-11-27T05:55:26.479Z,1023.8
2022-11-27T06:00:32.496Z,1023.7
2022-11-27T06:05:37.585Z,1023.7
2022-11-27T06:10:42.659Z,1023.6
2022-11-27T06:15:48.770Z,1023.6
2022-11-27T06:20:54.839Z,1023.5
2022-11-27T06:26:01.001Z,1023.4
2022-11-27T06:31:07.024Z,1023.5
2022-11-27T06:36:13.163Z,1023.5
2022-11-27T06:41:19.239Z,1023.5
2022-11-27T06:46:25.309Z,1023.6
2022-11-27T06:51:31.396Z,1023.5
2022-11-27T06:56:37.548Z,1023.6
2022-11-27T07:01:43.680Z,1023.7
2022-11-27T07:06:49.697Z,1023.5
2022-11-27T07:11:55.752Z,1023.5
2022-11-27T07:17:01.844Z,1023.4
2022-11-27T07:22:07.934Z,1023.4
2022-11-27T07:27:14.025Z,1023.3
2022-11-27T07:32:20.113Z,1023.3
2022-11-27T07:42:32.289Z,1023.2
2022-11-27T07:47:38.375Z,1023.3
2022-11-27T07:52:44.513Z,1023.2
2022-11-27T07:57:50.611Z,1023.1
2022-11-27T08:02:56.785Z,1023.2
2022-11-27T08:08:02.851Z,1023.2
2022-11-27T08:13:08.897Z,1023.2
2022-11-27T08:18:14.993Z,1023.1
2022-11-27T08:23:21.015Z,1023.2
2022-11-27T08:28:27.108Z,1023.1
2022-11-27T08:33:33.207Z,1023.1
2022-11-27T08:38:39.337Z,1023.1
2022-11-27T08:43:45.450Z,1023
2022-11-27T08:48:51.590Z,1023.1
2022-11-27T08:53:57.629Z,1023.1
2022-11-27T08:59:03.656Z,1023.2
2022-11-27T09:04:09.838Z,1023.1
2022-11-27T09:09:15.945Z,1023
2022-11-27T09:14:22.013Z,1023
2022-11-27T09:19:28.131Z,1023
2022-11-27T09:24:34.251Z,1023
2022-11-27T09:29:40.489Z,1022.8
2022-11-27T09:34:46.626Z,1022.8
2022-11-27T09:39:52.846Z,1022.7
2022-11-27T09:44:58.997Z,1022.7
2022-11-27T09:50:05.068Z,1022.6
2022-11-27T09:55:11.157Z,1022.7
2022-11-27T10:00:17.355Z,1022.7
2022-11-27T10:05:23.569Z,1022.6
2022-11-27T10:10:29.595Z,1022.7
2022-11-27T10:15:35.897Z,1022.6
2022-11-27T10:20:42.034Z,1022.6
2022-11-27T10:25:48.404Z,1022.5
2022-11-27T10:30:54.644Z,1022.4
2022-11-27T10:36:00.832Z,1022.4
2022-11-27T10:41:07.137Z,1022.3
2022-11-27T10:46:13.230Z,1022.3
2022-11-27T10:51:19.688Z,1022.3
2022-11-27T10:56:24.922Z,1022.2
2022-11-27T11:01:31.003Z,1022.2
2022-11-27T11:06:37.085Z,1022.1
2022-11-27T11:11:43.232Z,1022.1
2022-11-27T11:16:49.097Z,1022.3
2022-11-27T11:21:55.385Z,1022.2
2022-11-27T11:27:01.317Z,1022.1
2022-11-27T11:32:07.561Z,1022
2022-11-27T11:37:13.623Z,1022
2022-11-27T11:42:19.548Z,1022
2022-11-27T11:47:25.639Z,1022
2022-11-27T11:52:31.768Z,1022
2022-11-27T11:57:37.928Z,1021.9
2022-11-27T12:02:43.937Z,1021.8
2022-11-27T12:07:50.165Z,1021.8
2022-11-27T12:12:55.279Z,1021.7
2022-11-27T12:18:01.211Z,1021.6
2022-11-27T12:23:07.424Z,1021.5
2022-11-27T12:28:13.383Z,1021.4
2022-11-27T12:33:19.615Z,1021.3
2022-11-27T12:38:25.753Z,1021.3
2022-11-27T12:43:30.876Z,1021.1
2022-11-27T12:48:36.888Z,1021.1
2022-11-27T12:53:42.037Z,1021
2022-11-27T12:58:48.174Z,1021
2022-11-27T13:09:00.147Z,1020.8
2022-11-27T13:14:06.236Z,1020.9
2022-11-27T13:19:12.331Z,1020.8
2022-11-27T13:24:18.416Z,1020.7
2022-11-27T13:29:24.693Z,1020.6
2022-11-27T13:34:30.685Z,1020.6
2022-11-27T13:39:36.708Z,1020.6
2022-11-27T13:44:41.929Z,1020.4
2022-11-27T13:49:47.896Z,1020.3
2022-11-27T13:54:54.011Z,1020.3
2022-11-27T14:00:00.098Z,1020.2
2022-11-27T14:05:06.174Z,1020.3
2022-11-27T14:10:12.319Z,1020.3
2022-11-27T14:15:18.389Z,1020.2
2022-11-27T14:20:24.582Z,1020.1
2022-11-27T14:25:30.544Z,1020.2
2022-11-27T14:30:36.615Z,1020.1
2022-11-27T14:35:42.715Z,1020.1
2022-11-27T14:40:48.913Z,1020.1
2022-11-27T14:45:54.928Z,1020.1
2022-11-27T14:51:00.978Z,1020.1
2022-11-27T14:56:07.087Z,1020.1
2022-11-27T15:01:13.164Z,1019.9
2022-11-27T15:06:19.315Z,1020
2022-11-27T15:11:25.340Z,1019.9
2022-11-27T15:16:31.445Z,1019.8
2022-11-27T15:21:37.518Z,1019.9
2022-11-27T15:26:43.670Z,1019.8
2022-11-27T15:31:49.729Z,1019.7
2022-11-27T15:36:55.865Z,1019.8
2022-11-27T15:42:01.949Z,1019.7
2022-11-27T15:47:07.977Z,1019.7
2022-11-27T15:52:14.260Z,1019.6
2022-11-27T15:57:20.353Z,1019.6
2022-11-27T16:02:26.536Z,1019.6
2022-11-27T16:07:32.599Z,1019.5
2022-11-27T16:12:38.794Z,1019.4
2022-11-27T16:17:44.892Z,1019.3
2022-11-27T16:22:51.037Z,1019.3
2022-11-27T16:27:57.206Z,1019.3
2022-11-27T16:33:03.365Z,1019.3
2022-11-27T16:38:09.492Z,1019.2
2022-11-27T16:43:15.764Z,1019.1
2022-11-27T16:48:21.861Z,1019.2
2022-11-27T16:53:27.956Z,1019.1
2022-11-27T16:58:34.249Z,1019
2022-11-27T17:03:40.486Z,1018.9
2022-11-27T17:08:46.761Z,1018.9
2022-11-27T17:13:53.023Z,1018.9
2022-11-27T17:18:58.407Z,1018.7
2022-11-27T17:24:04.399Z,1018.7
2022-11-27T17:29:10.556Z,1018.7
2022-11-27T17:34:16.604Z,1018.6
2022-11-27T17:39:22.694Z,1018.5
2022-11-27T17:44:28.796Z,1018.4
2022-11-27T17:49:34.834Z,1018.3
2022-11-27T17:54:40.917Z,1018.3
2022-11-27T17:59:46.979Z,1018.3
2022-11-27T18:04:53.108Z,1018.2
2022-11-27T18:09:59.237Z,1018.1
2022-11-27T18:15:05.348Z,1018
2022-11-27T18:20:11.352Z,1018
2022-11-27T18:25:16.455Z,1017.9
2022-11-27T18:30:22.697Z,1017.9
2022-11-27T18:35:28.788Z,1017.9
2022-11-27T18:40:34.882Z,1017.9
2022-11-27T18:45:40.964Z,1017.9
2022-11-27T18:50:46.971Z,1018
2022-11-27T18:55:53.018Z,1018
2022-11-27T19:00:59.095Z,1018
2022-11-27T19:06:05.295Z,1017.9
2022-11-27T19:11:11.256Z,1017.9
2022-11-27T19:16:17.347Z,1017.8
2022-11-27T19:21:23.489Z,1017.8
2022-11-27T19:26:29.627Z,1017.8
2022-11-27T19:31:35.629Z,1017.7
2022-11-27T19:36:41.736Z,1017.6
2022-11-27T19:41:47.802Z,1017.6
2022-11-27T19:46:53.908Z,1017.6
2022-11-27T19:51:59.983Z,1017.5
2022-11-27T19:57:06.075Z,1017.5
2022-11-27T20:02:12.168Z,1017.5
2022-11-27T20:07:18.270Z,1017.5
2022-11-27T20:12:24.351Z,1017.4
2022-11-27T20:17:30.435Z,1017.4
2022-11-27T20:22:36.522Z,1017.4
2022-11-27T20:27:42.619Z,1017.5
2022-11-27T20:32:48.706Z,1017.5
2022-11-27T20:37:54.811Z,1017.5
2022-11-27T20:43:00.889Z,1017.5
2022-11-27T20:48:07.056Z,1017.4
2022-11-27T20:53:13.076Z,1017.3
2022-11-27T20:58:19.205Z,1017.4
2022-11-27T21:03:25.245Z,1017.2
2022-11-27T21:08:31.387Z,1017.1
2022-11-27T21:13:37.434Z,1017
2022-11-27T21:18:43.519Z,1017
2022-11-27T21:23:49.614Z,1017
2022-11-27T21:28:55.701Z,1016.9
2022-11-27T21:34:01.990Z,1016.7
2022-11-27T21:39:08.099Z,1016.7
2022-11-27T21:44:14.196Z,1016.7
2022-11-27T21:49:20.314Z,1016.7
2022-11-27T21:54:26.469Z,1016.6
2022-11-27T21:59:32.614Z,1016.6
2022-11-27T22:04:38.773Z,1016.7
2022-11-27T22:09:44.925Z,1016.6
2022-11-27T22:14:51.069Z,1016.7
2022-11-27T22:19:57.227Z,1016.7
2022-11-27T22:25:03.391Z,1016.6
2022-11-27T22:30:09.536Z,1016.6
2022-11-27T22:35:15.689Z,1016.6
2022-11-27T22:40:21.984Z,1016.6
2022-11-27T22:45:28.262Z,1016.6
2022-11-27T22:50:34.499Z,1016.5
2022-11-27T22:55:40.750Z,1016.5
2022-11-27T23:00:47.014Z,1016.4
2022-11-27T23:05:53.275Z,1016.4
2022-11-27T23:10:59.548Z,1016.3
2022-11-27T23:16:05.931Z,1016.2
2022-11-27T23:21:12.069Z,1016.2
2022-11-27T23:26:18.382Z,1016.2
2022-11-27T23:31:24.601Z,1016.1
2022-11-27T23:36:30.864Z,1016.1
2022-11-27T23:41:37.155Z,1016
2022-11-27T23:46:43.602Z,1016.1
2022-11-27T23:51:50.085Z,1016
2022-11-27T23:56:56.564Z,1016
